Time;durP1;ratioP1;P1;durP2;ratioP2;P2;SDS_P1;SDS_P2;PMS_P1;PMS_P2;Temp;Humidity;BMP_temperature;BMP_pressure;BME280_temperature;BME280_humidity;BME280_pressure;Samples;Min_cycle;Max_cycle;Signal;HPM_P1;HPM_P2
2023/12/21 00:00:10;;;;;;;10.65;3.10;;;9.80;99.90;;;;;;5059245;28;20080;-89
2023/12/21 00:02:36;;;;;;;9.20;3.55;;;9.90;99.90;;;;;;5040904;28;20037;-90
2023/12/21 00:05:01;;;;;;;7.28;3.15;;;9.90;99.90;;;;;;5039857;28;20131;-89
2023/12/21 00:07:27;;;;;;;6.90;3.08;;;9.90;99.90;;;;;;5040898;28;20400;-90
2023/12/21 00:09:56;;;;;;;8.02;2.80;;;10.00;99.90;;;;;;5042348;28;20029;-90
2023/12/21 00:12:25;;;;;;;8.45;2.78;;;9.90;99.90;;;;;;5059756;28;20033;-91
2023/12/21 00:14:51;;;;;;;10.73;3.40;;;10.00;99.90;;;;;;5042578;28;20029;-86
2023/12/21 00:17:17;;;;;;;9.60;3.22;;;9.90;99.90;;;;;;5060522;28;20040;-91
2023/12/21 00:19:42;;;;;;;9.38;3.13;;;10.00;99.90;;;;;;5043222;28;20045;-90
2023/12/21 00:22:08;;;;;;;9.23;3.15;;;10.00;99.90;;;;;;5059874;28;20037;-90
2023/12/21 00:24:34;;;;;;;6.38;3.10;;;10.00;99.90;;;;;;5059127;28;20029;-90
2023/12/21 00:26:59;;;;;;;7.88;2.97;;;10.00;99.90;;;;;;5058823;28;20377;-90
2023/12/21 00:29:25;;;;;;;10.93;3.08;;;10.00;99.90;;;;;;5058569;28;20036;-89
2023/12/21 00:31:51;;;;;;;9.50;2.92;;;10.00;99.90;;;;;;5042141;28;20040;-90
2023/12/21 00:34:16;;;;;;;8.45;2.65;;;10.00;99.90;;;;;;5041754;28;20033;-90
2023/12/21 00:36:45;;;;;;;6.80;2.83;;;10.00;99.90;;;;;;5041679;28;20037;-89
2023/12/21 00:39:10;;;;;;;8.25;2.75;;;10.00;99.90;;;;;;5059886;28;20049;-88
2023/12/21 00:41:36;;;;;;;9.63;3.00;;;10.10;99.90;;;;;;5042683;28;20036;-91
2023/12/21 00:44:05;;;;;;;8.45;2.58;;;10.00;99.90;;;;;;5059266;28;20415;-90
2023/12/21 00:46:30;;;;;;;7.60;2.70;;;10.00;99.90;;;;;;5060126;28;20036;-91
2023/12/21 00:48:56;;;;;;;9.75;2.83;;;10.00;99.90;;;;;;5057683;28;20021;-89
2023/12/21 00:51:22;;;;;;;8.77;2.75;;;10.00;99.90;;;;;;5057433;28;20036;-90
2023/12/21 00:53:47;;;;;;;10.98;2.95;;;10.00;99.90;;;;;;5041931;28;20067;-90
2023/12/21 00:56:13;;;;;;;10.02;3.35;;;10.00;99.90;;;;;;5041216;28;20338;-90
2023/12/21 00:58:39;;;;;;;7.28;2.97;;;10.10;99.90;;;;;;5041619;28;20044;-90
2023/12/21 01:01:04;;;;;;;7.63;2.90;;;10.10;99.90;;;;;;5039927;28;20025;-90
2023/12/21 01:03:30;;;;;;;8.00;3.10;;;10.10;99.90;;;;;;5063552;28;20013;-88
2023/12/21 01:05:56;;;;;;;9.88;3.97;;;10.10;99.90;;;;;;5059255;28;20029;-89
2023/12/21 01:08:22;;;;;;;8.27;2.67;;;10.10;99.90;;;;;;5075335;28;20068;-89
2023/12/21 01:10:48;;;;;;;8.52;3.42;;;10.10;99.90;;;;;;5048692;28;20048;-89
2023/12/21 01:13:14;;;;;;;8.90;3.45;;;10.00;99.90;;;;;;5069143;28;20071;-89
2023/12/21 01:15:41;;;;;;;8.00;3.30;;;10.10;99.90;;;;;;5039713;28;20032;-90
2023/12/21 01:18:06;;;;;;;8.00;3.50;;;10.10;99.90;;;;;;5038707;28;20032;-90
2023/12/21 01:20:34;;;;;;;9.10;3.67;;;10.10;99.90;;;;;;5038374;28;20498;-91
2023/12/21 01:23:00;;;;;;;10.82;3.70;;;10.00;99.90;;;;;;5037910;28;20123;-85
2023/12/21 01:25:26;;;;;;;7.40;3.03;;;10.00;99.90;;;;;;5037656;28;20064;-89
2023/12/21 01:27:52;;;;;;;10.25;3.83;;;10.10;99.90;;;;;;5054376;28;20487;-89
2023/12/21 01:30:17;;;;;;;9.05;3.30;;;10.00;99.90;;;;;;5037844;28;20057;-89
2023/12/21 01:32:43;;;;;;;8.00;3.25;;;10.00;99.90;;;;;;5037697;28;20439;-90
2023/12/21 01:35:09;;;;;;;9.85;3.25;;;10.00;99.90;;;;;;5053997;28;20029;-90
2023/12/21 01:37:35;;;;;;;11.38;4.22;;;10.10;99.90;;;;;;5037553;28;20033;-89
2023/12/21 01:40:00;;;;;;;10.25;3.17;;;10.00;99.90;;;;;;5054670;28;20025;-91
2023/12/21 01:42:26;;;;;;;11.27;3.80;;;10.00;99.90;;;;;;5054155;28;20116;-89
2023/12/21 01:44:51;;;;;;;10.85;3.67;;;10.00;99.90;;;;;;5037631;28;20361;-89
2023/12/21 01:47:17;;;;;;;11.05;3.67;;;10.00;99.90;;;;;;5054098;28;20111;-89
2023/12/21 01:49:44;;;;;;;12.05;4.22;;;10.00;99.90;;;;;;5055080;28;20036;-88
2023/12/21 01:52:10;;;;;;;9.82;3.72;;;10.00;99.90;;;;;;5058475;28;20033;-90
2023/12/21 01:54:36;;;;;;;10.63;3.50;;;10.00;99.90;;;;;;5056844;28;20366;-89
2023/12/21 01:57:02;;;;;;;12.25;3.50;;;10.00;99.90;;;;;;5053839;28;20033;-88
2023/12/21 01:59:30;;;;;;;10.18;3.78;;;10.00;99.90;;;;;;5053487;28;20040;-88
2023/12/21 02:01:55;;;;;;;9.05;3.65;;;10.00;99.90;;;;;;5053118;28;20034;-88
2023/12/21 02:04:22;;;;;;;11.85;3.33;;;10.00;99.90;;;;;;5053386;28;20021;-89
2023/12/21 02:06:47;;;;;;;13.38;3.70;;;10.00;99.90;;;;;;5053143;28;20491;-89
2023/12/21 02:09:13;;;;;;;7.65;3.42;;;10.00;99.90;;;;;;5036938;28;20029;-85
2023/12/21 02:11:39;;;;;;;10.75;3.35;;;10.00;99.90;;;;;;5052555;28;20029;-86
2023/12/21 02:14:05;;;;;;;10.07;3.05;;;10.00;99.90;;;;;;5052804;28;20025;-87
2023/12/21 02:16:46;;;;;;;6.88;2.83;;;10.00;99.90;;;;;;5054235;28;20025;-87
2023/12/21 02:19:13;;;;;;;6.18;2.90;;;10.10;99.90;;;;;;5053142;28;20028;-87
2023/12/21 02:21:42;;;;;;;9.63;3.15;;;10.10;99.90;;;;;;5053087;28;20453;-87
2023/12/21 02:24:14;;;;;;;8.95;3.55;;;10.10;99.90;;;;;;5052617;28;20430;-86
2023/12/21 02:26:39;;;;;;;;;;;10.10;99.90;;;;;;5052422;28;20036;-86
2023/12/21 02:29:05;;;;;;;8.18;2.80;;;10.10;99.90;;;;;;5036394;28;20276;-87
2023/12/21 02:31:31;;;;;;;7.85;2.63;;;10.10;99.90;;;;;;5053617;28;20465;-88
2023/12/21 02:33:57;;;;;;;10.73;3.25;;;10.10;99.90;;;;;;5058423;28;20509;-88
2023/12/21 02:36:25;;;;;;;11.07;3.10;;;10.10;99.90;;;;;;5059429;28;20039;-87
2023/12/21 02:38:51;;;;;;;8.50;2.95;;;10.10;99.90;;;;;;5059724;28;20042;-87
2023/12/21 02:41:17;;;;;;;9.18;2.60;;;10.00;99.90;;;;;;5075048;28;20016;-86
2023/12/21 02:43:43;;;;;;;10.00;3.13;;;10.10;99.90;;;;;;5065773;28;20033;-87
2023/12/21 02:46:09;;;;;;;6.47;2.63;;;10.10;99.90;;;;;;5053025;28;20029;-87
2023/12/21 02:48:34;;;;;;;9.25;3.53;;;10.10;99.90;;;;;;5052959;28;20029;-88
2023/12/21 02:51:00;;;;;;;11.30;3.65;;;10.10;99.90;;;;;;5036421;28;20056;-88
2023/12/21 02:53:26;;;;;;;8.63;3.47;;;10.00;99.90;;;;;;5056684;28;20060;-87
2023/12/21 02:55:52;;;;;;;9.63;3.17;;;10.00;99.90;;;;;;5040107;28;20021;-87
2023/12/21 02:58:18;;;;;;;9.95;2.83;;;10.00;99.90;;;;;;5056323;28;20025;-88
2023/12/21 03:00:43;;;;;;;10.50;3.60;;;10.10;99.90;;;;;;5039995;28;20032;-86
2023/12/21 03:03:09;;;;;;;9.95;3.45;;;10.10;99.90;;;;;;5039793;28;20377;-86
2023/12/21 03:05:36;;;;;;;11.45;3.63;;;10.10;99.90;;;;;;5040141;28;20469;-89
2023/12/21 03:08:02;;;;;;;11.18;3.35;;;10.10;99.90;;;;;;5040119;28;20049;-89
2023/12/21 03:10:28;;;;;;;7.03;3.33;;;10.10;99.90;;;;;;5056788;28;20155;-88
2023/12/21 03:12:54;;;;;;;8.27;2.97;;;10.10;99.90;;;;;;5040472;28;20033;-88
2023/12/21 03:15:19;;;;;;;10.15;3.03;;;10.10;99.90;;;;;;5040523;28;20040;-89
2023/12/21 03:17:45;;;;;;;11.70;3.25;;;10.10;99.90;;;;;;5057400;28;20097;-90
2023/12/21 03:20:11;;;;;;;10.82;3.88;;;10.10;99.90;;;;;;5040506;28;20025;-87
2023/12/21 03:22:37;;;;;;;9.88;3.15;;;10.10;99.90;;;;;;5039969;28;20040;-87
2023/12/21 03:25:06;;;;;;;12.50;4.13;;;10.10;99.90;;;;;;5039778;28;20032;-87
2023/12/21 03:27:31;;;;;;;12.18;3.63;;;10.10;99.90;;;;;;5039873;28;20033;-88
2023/12/21 03:29:57;;;;;;;13.27;3.78;;;10.10;99.90;;;;;;5057195;28;20086;-90
2023/12/21 03:32:22;;;;;;;8.40;3.17;;;10.10;99.90;;;;;;5040091;28;20116;-89
2023/12/21 03:34:49;;;;;;;12.50;3.92;;;10.10;99.90;;;;;;5040300;28;20044;-88
2023/12/21 03:37:15;;;;;;;9.55;3.00;;;10.10;99.90;;;;;;5056463;28;20059;-88
2023/12/21 03:39:40;;;;;;;11.32;4.45;;;10.10;99.90;;;;;;5039878;28;20029;-89
2023/12/21 03:42:06;;;;;;;12.13;3.75;;;10.10;99.90;;;;;;5056786;28;20029;-88
2023/12/21 03:44:35;;;;;;;12.45;4.15;;;10.10;99.90;;;;;;5057424;28;20059;-88
2023/12/21 03:47:00;;;;;;;10.20;2.90;;;10.10;99.90;;;;;;5058559;28;20124;-88
2023/12/21 03:49:28;;;;;;;12.98;3.38;;;10.10;99.90;;;;;;5040964;28;20451;-88
2023/12/21 03:51:55;;;;;;;11.02;3.33;;;10.10;99.90;;;;;;5040915;28;20025;-88
2023/12/21 03:54:21;;;;;;;11.65;3.92;;;10.10;99.90;;;;;;5040744;28;20074;-88
2023/12/21 03:56:47;;;;;;;9.43;3.38;;;10.10;99.90;;;;;;5040330;28;20422;-88
2023/12/21 03:59:12;;;;;;;12.15;4.20;;;10.10;99.90;;;;;;5056417;28;20029;-88
2023/12/21 04:01:38;;;;;;;10.85;3.92;;;10.10;99.90;;;;;;5039759;28;20021;-89
2023/12/21 04:04:03;;;;;;;12.70;3.40;;;10.10;99.90;;;;;;5040666;28;20040;-88
2023/12/21 04:06:29;;;;;;;12.10;3.65;;;10.20;99.90;;;;;;5059764;28;20033;-86
2023/12/21 04:08:55;;;;;;;13.15;3.92;;;10.20;99.90;;;;;;5079549;28;20120;-89
2023/12/21 04:11:21;;;;;;;12.07;4.10;;;10.10;99.90;;;;;;5052634;28;20096;-85
2023/12/21 04:13:50;;;;;;;13.15;3.38;;;10.10;99.90;;;;;;5049167;28;20032;-89
2023/12/21 04:16:15;;;;;;;17.95;3.90;;;10.10;99.90;;;;;;5057825;28;20483;-88
2023/12/21 04:18:41;;;;;;;13.00;3.35;;;10.20;99.90;;;;;;5039524;28;20048;-89
2023/12/21 04:21:07;;;;;;;9.55;3.10;;;10.10;99.90;;;;;;5039577;28;20032;-90
2023/12/21 04:23:33;;;;;;;9.75;2.83;;;10.10;99.90;;;;;;5039370;28;20025;-88
2023/12/21 04:25:59;;;;;;;9.05;3.25;;;10.10;99.90;;;;;;5057251;28;20048;-90
2023/12/21 04:28:25;;;;;;;13.40;3.80;;;10.10;99.90;;;;;;5055854;28;20073;-89
2023/12/21 04:30:50;;;;;;;11.68;3.80;;;10.10;99.90;;;;;;5055883;28;20072;-89
2023/12/21 04:33:16;;;;;;;11.93;3.70;;;10.10;99.90;;;;;;5055637;28;20381;-89
2023/12/21 04:35:46;;;;;;;10.60;3.35;;;10.10;99.90;;;;;;5039450;28;20060;-90
2023/12/21 04:38:12;;;;;;;11.77;4.57;;;10.10;99.90;;;;;;5055812;28;20024;-90
2023/12/21 04:40:38;;;;;;;12.80;4.13;;;10.10;99.90;;;;;;5039366;28;20036;-91
2023/12/21 04:43:05;;;;;;;13.77;4.07;;;10.10;99.90;;;;;;5038833;28;20028;-89
2023/12/21 04:45:31;;;;;;;10.48;3.35;;;10.10;99.90;;;;;;5055365;28;20029;-90
2023/12/21 04:47:57;;;;;;;15.30;4.20;;;10.10;99.90;;;;;;5038451;28;20029;-91
2023/12/21 04:50:22;;;;;;;8.15;3.63;;;10.10;99.90;;;;;;5038563;28;20037;-89
2023/12/21 04:52:49;;;;;;;9.85;3.85;;;10.10;99.90;;;;;;5038583;28;20032;-89
2023/12/21 04:55:15;;;;;;;12.13;3.80;;;10.10;99.90;;;;;;5038549;28;20025;-89
2023/12/21 04:57:41;;;;;;;12.23;4.22;;;10.10;99.90;;;;;;5054942;28;20074;-90
2023/12/21 05:00:07;;;;;;;8.05;3.30;;;10.10;99.90;;;;;;5055000;28;20120;-90
2023/12/21 05:02:34;;;;;;;10.50;3.80;;;10.20;99.90;;;;;;5038110;28;20032;-88
2023/12/21 05:04:59;;;;;;;8.40;3.25;;;10.10;99.90;;;;;;5054798;28;20025;-90
2023/12/21 05:07:25;;;;;;;10.85;3.33;;;10.20;99.90;;;;;;5038229;28;20056;-88
2023/12/21 05:09:59;;;;;;;15.82;4.15;;;10.20;99.90;;;;;;5054618;28;20049;-89
2023/12/21 05:12:25;;;;;;;13.30;3.38;;;10.20;99.90;;;;;;5039231;28;20090;-89
2023/12/21 05:14:51;;;;;;;12.40;3.70;;;10.20;99.90;;;;;;5037720;28;20036;-89
2023/12/21 05:17:16;;;;;;;13.18;3.88;;;10.20;99.90;;;;;;5055922;28;20029;-90
2023/12/21 05:19:46;;;;;;;12.57;3.42;;;10.20;99.90;;;;;;5054853;28;20048;-90
2023/12/21 05:22:12;;;;;;;11.57;3.53;;;10.20;99.90;;;;;;5055995;28;20023;-91
2023/12/21 05:24:40;;;;;;;12.63;3.90;;;10.20;99.90;;;;;;5055313;28;20116;-90
2023/12/21 05:27:09;;;;;;;9.65;3.20;;;10.20;99.90;;;;;;5038076;28;20052;-87
2023/12/21 05:29:35;;;;;;;12.85;3.95;;;10.20;99.90;;;;;;5037809;28;20025;-89
2023/12/21 05:32:01;;;;;;;15.77;3.90;;;10.20;99.90;;;;;;5038089;28;20362;-91
2023/12/21 05:34:26;;;;;;;11.60;3.70;;;10.20;99.90;;;;;;5057622;28;20156;-87
2023/12/21 05:36:52;;;;;;;12.88;3.78;;;10.10;99.90;;;;;;5052717;28;20025;-89
2023/12/21 05:39:20;;;;;;;13.30;3.33;;;10.20;99.90;;;;;;5077508;28;20017;-92
2023/12/21 05:41:48;;;;;;;12.73;3.13;;;10.10;99.90;;;;;;5052858;28;20029;-94
2023/12/21 05:44:20;;;;;;;9.70;3.38;;;10.10;99.90;;;;;;5065098;28;20047;-94
2023/12/21 05:46:48;;;;;;;9.98;3.20;;;10.20;99.90;;;;;;5060546;28;20032;-93
2023/12/21 05:49:16;;;;;;;11.05;3.47;;;10.20;99.90;;;;;;5062465;28;20036;-94
2023/12/21 05:51:53;;;;;;;11.82;3.63;;;10.20;99.90;;;;;;5062088;28;20025;-92
2023/12/21 05:54:27;;;;;;;12.57;3.38;;;10.20;99.90;;;;;;5061233;28;20020;-94
2023/12/21 06:00:17;;;;;;;11.57;3.03;;;10.20;99.90;;;;;;5077759;22;20089;-90
2023/12/21 06:02:43;;;;;;;13.10;3.22;;;10.20;99.90;;;;;;5013269;28;20038;-92
2023/12/21 06:05:08;;;;;;;8.82;2.70;;;10.10;99.90;;;;;;4986350;28;20037;-88
2023/12/21 06:07:55;;;;;;;5.88;2.60;;;10.10;99.90;;;;;;4981944;28;20102;-93
2023/12/21 06:16:14;;;;;;;;;;;;;;;;;;;;;
2023/12/21 06:18:41;;;;;;;13.07;3.53;;;10.10;99.90;;;;;;5012389;28;20101;-94
2023/12/21 06:21:10;;;;;;;16.27;4.25;;;10.20;99.90;;;;;;5170731;23;20053;-91
2023/12/21 06:23:35;;;;;;;12.95;3.17;;;10.10;99.90;;;;;;5018910;28;20026;-91
2023/12/21 06:26:01;;;;;;;9.35;3.33;;;10.10;99.90;;;;;;5023887;28;20021;-94
2023/12/21 06:28:27;;;;;;;10.57;2.80;;;10.10;99.90;;;;;;5026979;28;20129;-93
2023/12/21 06:30:55;;;;;;;13.45;4.10;;;10.20;99.90;;;;;;5011987;28;20050;-92
2023/12/21 06:33:22;;;;;;;10.32;2.95;;;10.20;99.90;;;;;;4996577;28;20023;-93
2023/12/21 06:35:58;;;;;;;13.23;3.50;;;10.20;99.90;;;;;;5013965;28;20032;-90
2023/12/21 06:38:27;;;;;;;9.15;2.85;;;10.20;99.90;;;;;;4977293;28;20471;-92
2023/12/21 06:40:55;;;;;;;9.25;2.58;;;10.20;99.90;;;;;;5010376;28;20112;-93
2023/12/21 06:43:46;;;;;;;7.32;2.45;;;10.20;99.90;;;;;;4988389;28;20044;-93
2023/12/21 06:46:13;;;;;;;11.05;2.95;;;10.20;99.90;;;;;;5015246;28;20022;-93
2023/12/21 06:48:42;;;;;;;8.07;2.78;;;10.20;99.90;;;;;;5007350;28;20088;-92
2023/12/21 06:51:15;;;;;;;8.70;2.88;;;10.20;99.90;;;;;;5020309;28;20033;-93
2023/12/21 06:53:43;;;;;;;10.05;2.95;;;10.20;99.90;;;;;;5001260;28;20030;-94
2023/12/21 06:56:19;;;;;;;9.73;3.08;;;10.20;99.90;;;;;;5020047;28;20025;-94
2023/12/21 06:58:47;;;;;;;7.88;2.72;;;10.20;99.90;;;;;;5015367;28;20018;-92
2023/12/21 07:01:13;;;;;;;10.10;2.60;;;10.20;99.90;;;;;;5012587;28;20030;-94
2023/12/21 07:03:39;;;;;;;9.75;2.60;;;10.20;99.90;;;;;;5022182;28;20075;-91
2023/12/21 07:06:05;;;;;;;7.78;2.90;;;10.20;99.90;;;;;;5015375;28;20018;-93
2023/12/21 07:08:30;;;;;;;7.28;3.00;;;10.20;99.90;;;;;;5017504;28;20065;-87
2023/12/21 07:10:56;;;;;;;9.93;3.13;;;10.20;99.90;;;;;;5053591;28;20026;-91
2023/12/21 07:13:22;;;;;;;8.77;2.97;;;10.20;99.90;;;;;;5039547;28;20030;-92
2023/12/21 07:15:48;;;;;;;9.68;3.13;;;10.20;99.90;;;;;;5016850;28;20142;-93
2023/12/21 07:18:16;;;;;;;8.60;3.13;;;10.20;99.90;;;;;;4985885;28;20165;-93
2023/12/21 07:20:43;;;;;;;9.27;2.47;;;10.20;99.90;;;;;;5006418;28;20034;-91
2023/12/21 07:23:09;;;;;;;7.65;2.88;;;10.20;99.90;;;;;;4995342;28;20091;-92
2023/12/21 07:28:57;;;;;;;9.88;2.90;;;10.20;99.90;;;;;;4998058;28;20157;-88
2023/12/21 07:31:23;;;;;;;6.10;2.65;;;10.30;99.90;;;;;;4983933;28;20061;-91
2023/12/21 07:33:48;;;;;;;11.70;3.10;;;10.30;99.90;;;;;;4989193;28;20058;-91
2023/12/21 07:36:15;;;;;;;12.13;3.92;;;10.30;99.90;;;;;;5003111;28;20429;-93
2023/12/21 07:38:40;;;;;;;11.00;4.07;;;10.30;99.90;;;;;;5013396;28;20147;-92
2023/12/21 07:41:10;;;;;;;10.50;3.28;;;10.30;99.90;;;;;;4992623;28;20022;-92
2023/12/21 07:43:44;;;;;;;10.68;3.42;;;10.30;99.90;;;;;;5008094;28;20101;-91
2023/12/21 07:46:11;;;;;;;9.82;3.50;;;10.30;99.90;;;;;;5009759;28;20100;-93
2023/12/21 07:48:36;;;;;;;10.38;3.05;;;10.30;99.90;;;;;;5006106;28;20129;-91
2023/12/21 07:51:10;;;;;;;10.50;3.28;;;10.30;99.90;;;;;;4979746;28;20080;-92
2023/12/21 07:53:39;;;;;;;8.98;2.97;;;10.30;99.90;;;;;;4997153;28;20104;-91
2023/12/21 07:56:05;;;;;;;9.20;3.00;;;10.30;99.90;;;;;;4993118;28;20045;-90
2023/12/21 07:58:31;;;;;;;9.90;3.00;;;10.30;99.90;;;;;;4972489;28;20025;-91
2023/12/21 08:00:57;;;;;;;11.43;3.13;;;10.30;99.90;;;;;;5000648;28;20026;-92
2023/12/21 08:03:23;;;;;;;13.75;3.20;;;10.30;99.90;;;;;;4994734;28;20021;-91
2023/12/21 08:05:51;;;;;;;11.32;3.25;;;10.30;99.90;;;;;;5010291;28;20033;-90
2023/12/21 08:08:20;;;;;;;7.35;2.72;;;10.30;99.90;;;;;;4992091;28;20042;-91
2023/12/21 08:10:46;;;;;;;10.93;2.88;;;10.20;99.90;;;;;;4993421;28;20365;-91
2023/12/21 08:13:13;;;;;;;10.18;3.00;;;10.30;99.90;;;;;;4992209;28;20116;-92
2023/12/21 08:15:39;;;;;;;11.45;2.88;;;10.30;99.90;;;;;;4997350;28;20034;-91
2023/12/21 08:18:05;;;;;;;5.70;2.22;;;10.30;99.90;;;;;;4986740;28;20557;-91
2023/12/21 08:23:19;;;;;;;7.22;2.30;;;10.30;99.90;;;;;;5307414;22;20044;-93
2023/12/21 08:25:48;;;;;;;5.10;1.75;;;10.30;99.90;;;;;;5086343;28;20055;-91
2023/12/21 08:28:30;;;;;;;7.60;2.15;;;10.30;99.90;;;;;;5075503;28;20052;-94
2023/12/21 08:31:04;;;;;;;6.47;2.08;;;10.40;99.90;;;;;;5450648;22;20140;-92
2023/12/21 08:33:30;;;;;;;5.47;1.73;;;10.40;99.90;;;;;;5057257;28;20024;-93
2023/12/21 08:35:57;;;;;;;6.85;1.90;;;10.40;99.90;;;;;;5058789;28;20028;-93
2023/12/21 08:38:26;;;;;;;6.53;2.20;;;10.40;99.90;;;;;;5646201;23;20083;-89
2023/12/21 08:41:05;;;;;;;3.90;1.63;;;10.40;99.90;;;;;;5622087;22;20045;-90
2023/12/21 08:43:42;;;;;;;3.25;1.35;;;10.40;99.90;;;;;;5318225;22;20055;-88
2023/12/21 08:51:39;;;;;;;4.47;1.65;;;10.40;99.90;;;;;;5298611;22;20075;-93
2023/12/21 08:54:30;;;;;;;4.03;1.50;;;10.40;99.90;;;;;;5224007;22;20387;-92
2023/12/21 08:57:03;;;;;;;5.88;1.70;;;10.40;99.90;;;;;;5190871;22;20118;-87
2023/12/21 08:59:29;;;;;;;6.05;2.00;;;10.40;99.90;;;;;;5055714;28;20132;-83
2023/12/21 09:04:30;;;;;;;5.47;2.22;;;10.50;99.90;;;;;;5415894;22;20060;-91
2023/12/21 09:06:57;;;;;;;5.40;1.50;;;10.50;99.90;;;;;;5343195;22;20046;-90
2023/12/21 09:09:29;;;;;;;7.47;2.17;;;10.50;99.90;;;;;;5079971;28;20118;-92
2023/12/21 09:12:04;;;;;;;7.97;2.10;;;10.50;99.90;;;;;;5080120;28;20016;-94
2023/12/21 09:14:35;;;;;;;4.85;1.48;;;10.50;99.90;;;;;;5081549;28;20019;-92
2023/12/21 09:17:01;;;;;;;;;;;10.50;99.90;;;;;;5049994;28;20019;-91
2023/12/21 09:19:28;;;;;;;9.10;2.60;;;10.50;99.90;;;;;;5061162;28;19900;-94
2023/12/21 09:21:54;;;;;;;8.07;1.92;;;10.40;99.90;;;;;;5074067;28;20048;-93
2023/12/21 09:24:28;;;;;;;7.57;2.05;;;10.40;99.90;;;;;;5075104;28;20028;-93
2023/12/21 09:26:56;;;;;;;8.55;2.75;;;10.50;99.90;;;;;;5059263;28;20469;-92
2023/12/21 09:29:22;;;;;;;9.50;2.00;;;10.50;99.90;;;;;;5086465;28;20036;-92
2023/12/21 09:34:45;;;;;;;14.45;2.97;;;10.50;99.90;;;;;;5353290;22;20106;-92
2023/12/21 09:37:25;;;;;;;9.80;2.45;;;10.50;99.90;;;;;;5165590;22;20047;-92
2023/12/21 09:42:27;;;;;;;4.78;1.80;;;10.60;99.90;;;;;;5651996;22;20052;-91
2023/12/21 09:45:29;;;;;;;;;;;;;;;;;;;;;
2023/12/21 09:53:06;;;;;;;7.80;1.70;;;10.60;99.90;;;;;;2160746;22;20312;-90
2023/12/21 09:55:33;;;;;;;6.72;2.08;;;10.60;99.90;;;;;;5082182;28;20031;-93
2023/12/21 09:58:00;;;;;;;7.43;2.00;;;10.70;99.90;;;;;;5077394;28;20067;-93
2023/12/21 10:00:29;;;;;;;7.60;1.80;;;10.60;99.90;;;;;;5092631;28;20039;-94
2023/12/21 10:02:58;;;;;;;9.65;1.80;;;10.70;99.90;;;;;;5112155;28;20033;-94
2023/12/21 10:05:28;;;;;;;5.80;1.45;;;10.70;99.90;;;;;;5106400;28;20055;-93
2023/12/21 10:07:54;;;;;;;7.18;1.90;;;10.70;99.90;;;;;;5139727;22;20081;-93
2023/12/21 10:10:21;;;;;;;9.00;1.98;;;10.70;99.90;;;;;;5120580;27;20091;-90
2023/12/21 10:12:47;;;;;;;7.13;2.20;;;10.70;99.90;;;;;;5136993;27;20024;-91
2023/12/21 10:15:20;;;;;;;5.22;1.38;;;10.80;99.90;;;;;;5118740;28;20031;-89
2023/12/21 10:17:51;;;;;;;7.30;1.70;;;10.80;99.90;;;;;;5109609;28;20077;-91
2023/12/21 10:20:23;;;;;;;7.53;2.08;;;10.80;99.90;;;;;;5075887;28;20033;-92
2023/12/21 10:22:56;;;;;;;7.30;2.10;;;10.80;99.90;;;;;;5098614;28;20023;-92
2023/12/21 10:25:22;;;;;;;5.03;1.92;;;10.90;99.90;;;;;;5099650;28;20020;-92
2023/12/21 10:27:57;;;;;;;7.85;2.22;;;10.90;99.90;;;;;;5098176;28;20032;-92
2023/12/21 10:30:27;;;;;;;5.40;2.03;;;10.90;99.90;;;;;;5094671;28;20031;-93
2023/12/21 10:33:05;;;;;;;7.70;1.83;;;10.90;99.90;;;;;;5095236;28;20110;-94
2023/12/21 10:35:32;;;;;;;6.10;1.45;;;10.90;99.90;;;;;;5098638;28;20020;-93
2023/12/21 10:37:58;;;;;;;4.95;1.10;;;10.90;99.90;;;;;;5107125;28;20047;-95
2023/12/21 10:40:24;;;;;;;5.40;1.35;;;10.90;99.90;;;;;;5180635;22;20048;-94
2023/12/21 10:42:54;;;;;;;6.03;1.73;;;10.90;99.90;;;;;;5079782;28;20029;-94
2023/12/21 10:45:24;;;;;;;8.15;2.28;;;10.90;99.90;;;;;;5049746;28;20051;-95
2023/12/21 10:48:06;;;;;;;6.57;1.50;;;11.00;99.90;;;;;;5074181;28;20159;-94
2023/12/21 10:50:34;;;;;;;6.00;1.70;;;11.00;99.90;;;;;;5070862;28;20153;-95
2023/12/21 10:53:01;;;;;;;5.53;1.55;;;11.00;99.90;;;;;;5051467;28;20029;-94
2023/12/21 10:55:40;;;;;;;;;;;;;;;;;;;;;
2023/12/21 10:58:07;;;;;;;7.60;1.63;;;11.10;99.90;;;;;;5065401;28;20054;-92
2023/12/21 11:00:34;;;;;;;3.90;1.45;;;11.20;99.90;;;;;;5064839;28;20016;-93
2023/12/21 11:03:12;;;;;;;7.75;1.70;;;11.20;99.90;;;;;;5069403;28;20480;-92
2023/12/21 11:05:41;;;;;;;4.78;1.70;;;11.20;99.90;;;;;;5078921;28;20025;-93
2023/12/21 11:08:13;;;;;;;6.22;1.48;;;11.20;99.90;;;;;;5066622;28;20040;-91
2023/12/21 11:10:46;;;;;;;8.23;2.38;;;11.20;99.90;;;;;;5062940;28;20044;-95
2023/12/21 11:13:12;;;;;;;8.02;1.75;;;11.20;99.90;;;;;;5073160;28;20457;-91
2023/12/21 11:15:40;;;;;;;5.25;1.20;;;11.20;99.90;;;;;;5070466;28;20058;-91
2023/12/21 11:18:13;;;;;;;5.40;1.52;;;11.30;99.90;;;;;;5058672;28;20032;-93
2023/12/21 11:20:47;;;;;;;7.38;1.70;;;11.30;99.90;;;;;;5073694;28;20021;-90
2023/12/21 11:23:21;;;;;;;5.43;1.23;;;11.30;99.90;;;;;;5058109;28;20036;-88
2023/12/21 11:25:59;;;;;;;5.25;1.25;;;11.30;99.90;;;;;;5074047;28;20024;-91
2023/12/21 11:28:27;;;;;;;8.13;1.80;;;11.30;99.90;;;;;;5077615;28;20429;-91
2023/12/21 11:30:53;;;;;;;4.47;1.27;;;11.20;99.90;;;;;;5085017;28;20073;-91
2023/12/21 11:33:30;;;;;;;4.60;1.70;;;11.30;99.90;;;;;;5072021;28;20016;-92
2023/12/21 11:35:58;;;;;;;6.25;1.40;;;11.20;99.90;;;;;;5073272;28;20025;-91
2023/12/21 11:38:47;;;;;;;4.53;0.90;;;11.20;99.90;;;;;;5066885;28;20132;-92
2023/12/21 11:41:16;;;;;;;2.55;1.08;;;11.20;99.90;;;;;;5086872;28;20059;-92
2023/12/21 11:44:06;;;;;;;5.28;1.30;;;11.20;99.90;;;;;;5159770;22;20056;-90
2023/12/21 11:46:35;;;;;;;6.88;1.60;;;11.20;99.90;;;;;;5106053;28;20024;-92
2023/12/21 11:49:04;;;;;;;6.25;1.40;;;11.30;99.90;;;;;;5118718;28;20036;-92
2023/12/21 11:51:49;;;;;;;5.05;1.75;;;11.30;99.90;;;;;;5082217;28;20039;-91
2023/12/21 11:54:24;;;;;;;4.82;1.15;;;11.20;99.90;;;;;;5125620;27;20024;-92
2023/12/21 11:57:42;;;;;;;7.25;1.92;;;11.20;99.90;;;;;;5104662;28;20024;-91
2023/12/21 12:00:20;;;;;;;5.35;1.38;;;11.20;99.90;;;;;;5106483;28;20032;-91
2023/12/21 12:02:49;;;;;;;5.28;1.45;;;11.20;99.90;;;;;;5086593;28;20444;-91
2023/12/21 12:05:24;;;;;;;6.95;1.70;;;11.20;99.90;;;;;;5099133;28;20023;-92
2023/12/21 12:07:56;;;;;;;5.50;1.30;;;11.20;99.90;;;;;;5111983;27;20020;-92
2023/12/21 12:10:24;;;;;;;6.45;1.80;;;11.20;99.90;;;;;;5084701;28;20054;-93
2023/12/21 12:12:54;;;;;;;8.05;2.03;;;11.20;99.90;;;;;;5099489;28;20060;-90
2023/12/21 12:15:20;;;;;;;4.90;1.50;;;11.20;99.90;;;;;;5102348;28;20059;-94
2023/12/21 12:17:50;;;;;;;6.25;1.52;;;11.20;99.90;;;;;;5086134;28;20345;-94
2023/12/21 12:20:25;;;;;;;4.57;1.52;;;11.20;99.90;;;;;;5103068;28;20034;-94
2023/12/21 12:22:53;;;;;;;4.05;1.27;;;11.30;99.90;;;;;;5109634;28;20097;-93
2023/12/21 12:25:25;;;;;;;7.60;1.40;;;11.30;99.90;;;;;;5108154;28;20024;-94
2023/12/21 12:28:09;;;;;;;5.00;1.38;;;11.30;99.90;;;;;;5104183;28;20476;-95
2023/12/21 12:30:55;;;;;;;6.35;1.60;;;11.30;99.90;;;;;;5169409;22;20417;-93
2023/12/21 12:33:49;;;;;;;4.55;1.60;;;11.30;99.90;;;;;;5108603;28;20020;-92
2023/12/21 12:36:35;;;;;;;5.57;1.38;;;11.30;99.90;;;;;;5125930;27;20063;-93
2023/12/21 12:39:51;;;;;;;4.65;1.20;;;11.30;99.90;;;;;;5110124;28;20030;-96
2023/12/21 12:48:41;;;;;;;;;;;;;;;;;;;;;
2023/12/21 12:58:10;;;;;;;;;;;;;;;;;;;;;
2023/12/21 13:37:46;;;;;;;5.03;1.25;;;11.10;99.90;;;;;;5516954;22;20060;-92
2023/12/21 13:40:32;;;;;;;;;;;;;;;;;;;;;
2023/12/21 13:43:09;;;;;;;10.32;2.22;;;11.10;99.90;;;;;;5147818;22;20138;-93
2023/12/21 13:45:40;;;;;;;6.30;2.08;;;11.10;99.90;;;;;;5089273;28;20409;-94
2023/12/21 13:48:21;;;;;;;4.78;1.25;;;11.10;99.90;;;;;;5063074;28;20435;-88
2023/12/21 13:51:07;;;;;;;;;;;11.10;99.90;;;;;;5081843;28;20041;-95
2023/12/21 13:53:56;;;;;;;7.10;2.17;;;11.10;99.90;;;;;;5079845;28;19947;-94
2023/12/21 13:56:32;;;;;;;10.13;1.90;;;11.10;99.90;;;;;;5070909;28;20032;-95
2023/12/21 13:59:14;;;;;;;6.80;1.90;;;11.10;99.90;;;;;;5090678;28;20020;-93
2023/12/21 14:02:16;;;;;;;;;;;;;;;;;;;;;
2023/12/21 14:05:08;;;;;;;12.20;2.80;;;11.10;99.90;;;;;;5081865;28;20111;-94
2023/12/21 14:07:45;;;;;;;13.13;2.42;;;11.00;99.90;;;;;;5064747;28;20040;-94
2023/12/21 14:10:58;;;;;;;10.85;2.60;;;11.10;99.90;;;;;;5089139;28;20042;-94
2023/12/21 14:13:27;;;;;;;8.05;1.80;;;11.10;99.90;;;;;;5097267;28;20419;-94
2023/12/21 14:15:58;;;;;;;10.82;2.25;;;11.10;99.90;;;;;;5083355;28;20028;-94
2023/12/21 14:18:55;;;;;;;;;;;;;;;;;;;;;
2023/12/21 14:21:27;;;;;;;10.13;2.65;;;11.00;99.90;;;;;;5104661;22;20067;-94
2023/12/21 14:24:16;;;;;;;8.30;2.70;;;11.00;99.90;;;;;;5204966;22;20036;-94
2023/12/21 14:27:15;;;;;;;8.40;2.58;;;11.00;99.90;;;;;;5104985;28;20080;-94
2023/12/21 14:29:53;;;;;;;14.57;2.83;;;11.00;99.90;;;;;;5087189;28;20025;-95
2023/12/21 14:32:52;;;;;;;;;;;;;;;;;;;;;